This is the latest recevied weather packets stored in our database for station/object WG5EEK. If no packets are shown the sender has not sent any weather packets the latest 10 day(s).
| Time | Temp. | Humidity | Pressure | Rain* | Wind** | Luminosity | Snow |
|---|---|---|---|---|---|---|---|
| 1777781161 | 14.44° C | 69% | 993.1 hPa | - | - | - | - |
| 1777780467 | 14.44° C | 69% | 992.8 hPa | - | - | - | - |
| 1777779361 | 15° C | 68% | 992.1 hPa | - | - | - | - |
| 1777777227 | 16.11° C | 66% | 990.5 hPa | - | - | - | - |
| 1777776842 | 16.11° C | 65% | 990.3 hPa | - | - | - | - |
| 1777775763 | 16.11° C | 64% | 989.7 hPa | - | - | - | - |
| 1777771443 | 18.89° C | 58% | 985.3 hPa | - | - | - | - |
| 1777770721 | 18.89° C | 57% | 984.6 hPa | - | - | - | - |
| 1777768922 | 20° C | 52% | 983 hPa | - | - | - | - |
| 1777768586 | 20° C | 52% | 982.8 hPa | - | - | - | - |
| 1777768203 | 20.56° C | 52% | 982.4 hPa | - | - | - | - |
| 1777767841 | 20.56° C | 52% | 982.2 hPa | - | - | - | - |
| 1777767486 | 20.56° C | 51% | 982.1 hPa | - | - | - | - |
| 1777766402 | 21.11° C | 50% | 981.3 hPa | - | - | - | - |
| 1777766042 | 21.11° C | 49% | 981.2 hPa | - | - | - | - |
| 1777764601 | 21.67° C | 48% | 980.7 hPa | - | - | - | - |
| 1777758122 | 22.78° C | 46% | 979.1 hPa | - | - | - | - |
| 1777757042 | 22.78° C | 46% | 979.1 hPa | - | - | - | - |
| 1777754882 | 22.78° C | 46% | 979.6 hPa | - | - | - | - |
| 1777752362 | 22.22° C | 48% | 980.6 hPa | - | - | - | - |
| 1777751640 | 22.78° C | 48% | 980 hPa | - | - | - | - |
| 1777750921 | 22.78° C | 48% | 980.2 hPa | - | - | - | - |
| 1777748042 | 22.22° C | 48% | 980.9 hPa | - | - | - | - |
| 1777747322 | 22.22° C | 49% | 981.1 hPa | - | - | - | - |
| 1777746241 | 22.22° C | 50% | 981.4 hPa | - | - | - | - |
* Rain since midnight (hover to see other rain measurements)
** Current wind speed in m/s (hover to see current wind gust speed)